CLM6 weather

Miller Island Seaplane Base
Lake Muskoka, Ontario, Canada

Public forecast

Using degrees Celsius for public forecast. Weather courtesy of forecast.io.

METAR (pilot weather report)

Closest report is Muskoka Airport, 7.0 nm (12.9 km) E. Retrieved 2019/05/20 18:15 UTC (0 seconds ago):

CYQA 201815Z AUTO 23010G19KT 7SM BKN010 OVC022 07/06 A2976 RMK SLP084

TAF (pilot weather forecast)

Closest forecast is Muskoka Airport, 7.0 nm (12.9 km) E. Retrieved 2019/05/20 14:39 UTC (3 hours ago):

TAF CYQA 201338Z 2014/2102 23010G20KT P6SM OVC030 TEMPO 2014/2018 OVC020 BECMG 2014/2015 24015G25KT FM201800 24018G28KT P6SM SCT015 OVC025 TEMPO 2018/2022 5SM -RA BR OVC015 BECMG 2019/2021 28010G20KT FM202300 32010KT P6SM OVC040 RMK FCST BASED ON AUTO OBS. NXT FCST BY 202000Z